createdAt,value
2022-12-26T00:00:22.866Z,97442.06
2022-12-26T00:02:53.531Z,97435.75
2022-12-26T00:05:23.960Z,97436.00
2022-12-26T00:07:54.380Z,97438.06
2022-12-26T00:10:27.411Z,97444.38
2022-12-26T00:13:38.412Z,97446.66
2022-12-26T00:15:48.403Z,97449.16
2022-12-26T00:18:18.861Z,97435.81
2022-12-26T00:20:50.736Z,97446.09
2022-12-26T00:23:21.262Z,97451.66
2022-12-26T00:25:54.764Z,97455.44
2022-12-26T00:28:25.163Z,97457.72
2022-12-26T00:30:55.877Z,97465.00
2022-12-26T00:33:26.286Z,97462.44
2022-12-26T00:35:56.650Z,97468.50
2022-12-26T00:38:27.029Z,97456.91
2022-12-26T00:41:00.295Z,97455.63
2022-12-26T00:43:30.740Z,97460.94
2022-12-26T00:46:01.857Z,97454.59
2022-12-26T00:48:32.488Z,97462.50
2022-12-26T00:51:03.773Z,97460.94
2022-12-26T00:53:34.365Z,97459.16
2022-12-26T00:56:07.828Z,97458.19
2022-12-26T00:58:38.423Z,97474.38
2022-12-26T01:01:12.482Z,97464.81
2022-12-26T01:03:43.562Z,97472.94
2022-12-26T01:06:13.747Z,97466.16
2022-12-26T01:08:44.386Z,97466.63
2022-12-26T01:11:39.188Z,97476.25
2022-12-26T01:14:12.329Z,97467.72
2022-12-26T01:16:44.442Z,97472.00
2022-12-26T01:19:16.160Z,97462.41
2022-12-26T01:21:46.508Z,97446.03
2022-12-26T01:24:16.867Z,97451.31
2022-12-26T01:26:49.874Z,97448.75
2022-12-26T01:29:20.270Z,97459.38
2022-12-26T01:31:50.693Z,97465.47
2022-12-26T01:34:21.167Z,97466.00
2022-12-26T01:36:51.585Z,97464.22
2022-12-26T01:39:22.170Z,97448.81
2022-12-26T01:41:55.125Z,97459.09
2022-12-26T01:45:03.603Z,97446.72
2022-12-26T01:47:50.046Z,97456.00
2022-12-26T01:50:36.694Z,97439.06
2022-12-26T01:53:15.487Z,97443.88
2022-12-26T01:55:50.192Z,97444.84
2022-12-26T01:58:28.329Z,97434.22
2022-12-26T02:00:58.962Z,97434.47
2022-12-26T02:03:42.369Z,97448.34
2022-12-26T02:06:16.960Z,97452.59
2022-12-26T02:08:49.392Z,97465.47
2022-12-26T02:11:24.869Z,97460.69
2022-12-26T02:13:59.475Z,97449.59
2022-12-26T02:16:30.204Z,97439.25
2022-12-26T02:19:00.679Z,97446.81
2022-12-26T02:22:05.319Z,97451.88
2022-12-26T02:25:16.701Z,97450.88
2022-12-26T02:28:04.326Z,97448.09
2022-12-26T02:30:45.957Z,97439.75
2022-12-26T02:33:35.056Z,97452.84
2022-12-26T02:36:40.155Z,97442.84
2022-12-26T02:39:44.689Z,97444.38
2022-12-26T02:42:30.240Z,97431.25
2022-12-26T02:45:26.502Z,97439.06
2022-12-26T02:48:10.792Z,97432.78
2022-12-26T02:51:10.979Z,97438.34
2022-12-26T02:54:03.935Z,97427.97
2022-12-26T02:56:51.260Z,97428.50
2022-12-26T02:59:56.149Z,97430.28
2022-12-26T03:02:46.859Z,97418.44
2022-12-26T03:05:40.142Z,97421.72
2022-12-26T03:08:31.541Z,97430.28
2022-12-26T03:11:14.980Z,97426.06
2022-12-26T03:13:48.235Z,97416.22
2022-12-26T03:16:33.168Z,97419.75
2022-12-26T03:19:08.585Z,97425.31
2022-12-26T03:21:46.558Z,97416.44
2022-12-26T03:24:20.274Z,97430.13
2022-12-26T03:26:53.455Z,97433.19
2022-12-26T03:29:38.497Z,97437.00
2022-12-26T03:32:13.441Z,97427.44
2022-12-26T03:34:47.129Z,97422.66
2022-12-26T03:37:48.604Z,97434.53
2022-12-26T03:40:56.542Z,97437.56
2022-12-26T03:43:55.298Z,97435.72
2022-12-26T03:46:53.048Z,97438.25
2022-12-26T03:49:42.742Z,97456.41
2022-12-26T03:52:36.135Z,97452.84
2022-12-26T03:55:29.070Z,97452.63
2022-12-26T03:58:23.272Z,97461.25
2022-12-26T04:01:09.808Z,97466.81
2022-12-26T04:03:55.432Z,97459.47
2022-12-26T04:06:43.516Z,97460.16
2022-12-26T04:09:32.875Z,97477.09
2022-12-26T04:12:19.314Z,97477.56
2022-12-26T04:15:08.677Z,97512.63
2022-12-26T04:18:02.127Z,97491.66
2022-12-26T04:20:44.084Z,97493.69
2022-12-26T04:23:32.469Z,97498.47
2022-12-26T04:26:22.929Z,97498.69
2022-12-26T04:29:09.098Z,97485.53
2022-12-26T04:32:00.911Z,97491.50
2022-12-26T04:34:55.011Z,97488.94
2022-12-26T04:37:41.714Z,97493.72
2022-12-26T04:40:31.829Z,97488.69
2022-12-26T04:43:47.530Z,97498.03
2022-12-26T04:46:08.883Z,97484.91
2022-12-26T04:48:59.612Z,97480.41
2022-12-26T04:51:29.952Z,97498.31
2022-12-26T04:54:00.377Z,97474.09
2022-12-26T04:56:30.822Z,97485.97
2022-12-26T04:59:01.227Z,97481.22
2022-12-26T05:01:46.731Z,97499.13
2022-12-26T05:04:30.748Z,97482.47
2022-12-26T05:07:14.168Z,97472.56
2022-12-26T05:09:44.567Z,97468.75
2022-12-26T05:12:15.043Z,97464.78
2022-12-26T05:14:45.723Z,97450.41
2022-12-26T05:17:31.179Z,97449.91
2022-12-26T05:20:13.927Z,97469.06
2022-12-26T05:23:00.115Z,97475.16
2022-12-26T05:25:50.248Z,97476.47
2022-12-26T05:28:33.605Z,97491.09
2022-12-26T05:31:05.325Z,97476.91
2022-12-26T05:33:50.325Z,97484.75
2022-12-26T05:36:23.706Z,97478.97
2022-12-26T05:38:56.262Z,97469.16
2022-12-26T05:41:26.985Z,97472.19
2022-12-26T05:43:57.415Z,97475.94
2022-12-26T05:46:27.958Z,97468.88
2022-12-26T05:49:01.088Z,97463.31
2022-12-26T05:51:31.482Z,97465.63
2022-12-26T05:54:02.406Z,97463.66
2022-12-26T05:56:33.152Z,97451.53
2022-12-26T05:59:04.613Z,97460.59
2022-12-26T06:01:35.236Z,97457.03
2022-12-26T06:04:08.281Z,97457.28
2022-12-26T06:06:38.731Z,97441.91
2022-12-26T06:09:09.307Z,97434.31
2022-12-26T06:11:46.825Z,97433.84
2022-12-26T06:14:19.399Z,97433.34
2022-12-26T06:16:49.883Z,97435.63
2022-12-26T06:19:22.866Z,97437.25
2022-12-26T06:21:53.327Z,97446.84
2022-12-26T06:24:23.930Z,97458.91
2022-12-26T06:26:54.293Z,97459.69
2022-12-26T06:29:24.889Z,97485.13
2022-12-26T06:31:55.351Z,97471.78
2022-12-26T06:34:28.714Z,97467.25
2022-12-26T06:36:59.175Z,97463.13
2022-12-26T06:39:29.519Z,97473.72
2022-12-26T06:41:59.921Z,97472.19
2022-12-26T06:44:30.722Z,97498.41
2022-12-26T06:47:01.167Z,97510.25
2022-12-26T06:49:34.203Z,97498.84
2022-12-26T06:52:04.628Z,97525.59
2022-12-26T06:54:35.254Z,97500.31
2022-12-26T06:57:05.715Z,97507.13
2022-12-26T06:59:36.322Z,97502.34
2022-12-26T07:02:06.867Z,97484.44
2022-12-26T07:04:39.965Z,97490.00
2022-12-26T07:07:10.416Z,97503.09
2022-12-26T07:09:40.835Z,97488.94
2022-12-26T07:12:11.306Z,97498.59
2022-12-26T07:14:42.066Z,97501.63
2022-12-26T07:17:13.568Z,97500.59
2022-12-26T07:19:46.599Z,97496.06
2022-12-26T07:22:17.046Z,97497.84
2022-12-26T07:24:47.385Z,97502.88
2022-12-26T07:27:17.806Z,97487.50
2022-12-26T07:29:50.954Z,97481.94
2022-12-26T07:32:22.424Z,97487.69
2022-12-26T07:34:55.652Z,97488.94
2022-12-26T07:37:25.987Z,97496.50
2022-12-26T07:39:59.208Z,97516.44
2022-12-26T07:42:29.930Z,97517.53
2022-12-26T07:45:02.088Z,97524.66
2022-12-26T07:47:32.515Z,97563.28
2022-12-26T07:50:05.591Z,97543.06
2022-12-26T07:52:35.955Z,97548.44
2022-12-26T07:55:07.001Z,97529.53
2022-12-26T07:57:52.294Z,97513.75
2022-12-26T08:00:23.530Z,97521.94
2022-12-26T08:02:58.574Z,97527.31
2022-12-26T08:05:35.939Z,97528.09
2022-12-26T08:08:06.792Z,97528.88
2022-12-26T08:10:37.254Z,97537.78
2022-12-26T08:13:07.769Z,97541.56
2022-12-26T08:15:41.090Z,97556.44
2022-12-26T08:18:11.723Z,97554.84
2022-12-26T08:20:44.705Z,97561.16
2022-12-26T08:23:15.061Z,97542.25
2022-12-26T08:25:45.623Z,97541.78
2022-12-26T08:28:15.992Z,97541.50
2022-12-26T08:30:46.891Z,97545.06
2022-12-26T08:33:17.327Z,97573.41
2022-12-26T08:35:50.415Z,97561.47
2022-12-26T08:38:20.824Z,97551.44
2022-12-26T08:40:58.454Z,97556.00
2022-12-26T08:43:53.198Z,97543.69
2022-12-26T08:46:20.262Z,97530.06
2022-12-26T08:48:51.274Z,97534.16
2022-12-26T08:51:25.859Z,97535.41
2022-12-26T08:53:58.217Z,97536.97
2022-12-26T08:56:30.349Z,97547.41
2022-12-26T08:59:00.913Z,97549.44
2022-12-26T09:01:33.740Z,97556.00
2022-12-26T09:04:07.488Z,97557.53
2022-12-26T09:06:42.093Z,97562.00
2022-12-26T09:09:14.691Z,97538.53
2022-12-26T09:11:46.108Z,97546.19
2022-12-26T09:14:16.579Z,97566.44
2022-12-26T09:16:50.889Z,97574.63
2022-12-26T09:19:23.454Z,97554.16
2022-12-26T09:22:16.471Z,97550.63
2022-12-26T09:24:47.356Z,97574.66
2022-12-26T09:27:17.703Z,97569.34
2022-12-26T09:29:48.217Z,97558.72
2022-12-26T09:32:18.775Z,97575.13
2022-12-26T09:34:51.540Z,97556.28
2022-12-26T09:37:24.588Z,97558.47
2022-12-26T09:39:55.173Z,97553.44
2022-12-26T09:42:36.721Z,97555.00
2022-12-26T09:45:16.395Z,97543.56
2022-12-26T09:48:00.945Z,97555.59
2022-12-26T09:50:42.692Z,97542.91
2022-12-26T09:53:22.777Z,97545.19
2022-12-26T09:55:58.827Z,97552.47
2022-12-26T09:58:33.532Z,97566.84
2022-12-26T10:01:11.004Z,97559.50
2022-12-26T10:03:44.286Z,97566.13
2022-12-26T10:06:19.594Z,97551.44
2022-12-26T10:09:13.485Z,97547.25
2022-12-26T10:12:04.171Z,97571.50
2022-12-26T10:14:46.786Z,97554.53
2022-12-26T10:17:28.122Z,97537.88
2022-12-26T10:20:22.811Z,97529.28
2022-12-26T10:23:34.393Z,97537.19
2022-12-26T10:26:15.813Z,97537.25
2022-12-26T10:28:50.842Z,97547.84
2022-12-26T10:31:28.014Z,97537.47
2022-12-26T10:34:09.098Z,97533.16
2022-12-26T10:36:44.690Z,97534.38
2022-12-26T10:39:24.313Z,97530.81
2022-12-26T10:42:02.041Z,97537.72
2022-12-26T10:44:32.646Z,97544.78
2022-12-26T10:47:27.095Z,97561.72
2022-12-26T10:50:00.253Z,97544.75
2022-12-26T10:52:37.078Z,97540.13
2022-12-26T10:55:29.207Z,97545.03
2022-12-26T10:58:08.477Z,97535.13
2022-12-26T11:00:38.959Z,97545.81
2022-12-26T11:03:12.751Z,97545.31
2022-12-26T11:08:43.791Z,97553.03
2022-12-26T11:11:23.583Z,97539.38
2022-12-26T11:14:02.596Z,97548.53
2022-12-26T11:16:41.699Z,97547.47
2022-12-26T11:19:30.911Z,97550.91
2022-12-26T11:22:25.808Z,97557.53
2022-12-26T11:25:23.106Z,97557.88
2022-12-26T11:27:56.076Z,97555.56
2022-12-26T11:30:34.187Z,97548.44
2022-12-26T11:33:30.995Z,97548.91
2022-12-26T11:36:14.359Z,97536.69
2022-12-26T11:38:54.552Z,97534.06
2022-12-26T11:41:40.397Z,97535.06
2022-12-26T11:44:32.560Z,97535.97
2022-12-26T11:47:15.578Z,97546.00
2022-12-26T11:49:56.807Z,97564.19
2022-12-26T11:52:40.353Z,97545.56
2022-12-26T11:55:33.982Z,97536.72
2022-12-26T11:58:19.228Z,97538.09
2022-12-26T12:01:15.895Z,97543.75
2022-12-26T12:03:51.719Z,97560.31
2022-12-26T12:06:42.344Z,97554.78
2022-12-26T12:09:26.247Z,97553.03
2022-12-26T12:12:04.580Z,97535.97
2022-12-26T12:15:00.991Z,97531.13
2022-12-26T12:17:41.607Z,97531.19
2022-12-26T12:20:38.771Z,97533.19
2022-12-26T12:23:44.777Z,97547.78
2022-12-26T12:26:21.336Z,97543.44
2022-12-26T12:29:26.627Z,97534.50
2022-12-26T12:32:11.922Z,97544.31
2022-12-26T12:35:03.276Z,97539.19
2022-12-26T12:37:55.852Z,97533.16
2022-12-26T12:40:37.023Z,97550.28
2022-12-26T12:43:19.316Z,97562.66
2022-12-26T12:46:08.691Z,97566.47
2022-12-26T12:49:02.395Z,97584.88
2022-12-26T12:51:43.074Z,97603.13
2022-12-26T12:54:43.977Z,97587.97
2022-12-26T12:57:24.111Z,97589.66
2022-12-26T13:00:07.400Z,97591.09
2022-12-26T13:02:44.038Z,97584.75
2022-12-26T13:05:32.416Z,97588.78
2022-12-26T13:08:10.418Z,97583.41
2022-12-26T13:10:54.071Z,97584.03
2022-12-26T13:13:31.399Z,97590.97
2022-12-26T13:16:06.750Z,97599.66
2022-12-26T13:18:43.646Z,97615.13
2022-12-26T13:21:16.971Z,97609.94
2022-12-26T13:24:05.869Z,97610.19
2022-12-26T13:26:41.990Z,97602.84
2022-12-26T13:29:19.372Z,97593.19
2022-12-26T13:31:50.133Z,97584.09
2022-12-26T13:34:23.535Z,97601.16
2022-12-26T13:36:55.904Z,97600.22
2022-12-26T13:39:43.862Z,97601.88
2022-12-26T13:42:47.756Z,97593.53
2022-12-26T13:45:50.977Z,97594.59
2022-12-26T13:49:09.288Z,97586.06
2022-12-26T13:51:55.520Z,97601.47
2022-12-26T13:54:29.143Z,97587.69
2022-12-26T13:57:40.135Z,97590.06
2022-12-26T14:00:21.777Z,97592.00
2022-12-26T14:03:26.014Z,97602.16
2022-12-26T14:06:31.651Z,97594.59
2022-12-26T14:09:24.305Z,97593.91
2022-12-26T14:12:42.448Z,97575.19
2022-12-26T14:15:40.958Z,97577.28
2022-12-26T14:18:35.685Z,97585.31
2022-12-26T14:21:35.524Z,97584.94
2022-12-26T14:24:33.170Z,97600.81
2022-12-26T14:27:37.640Z,97599.00
2022-12-26T14:30:25.747Z,97593.09
2022-12-26T14:33:23.172Z,97595.09
2022-12-26T14:36:20.930Z,97607.72
2022-12-26T14:39:03.503Z,97607.91
2022-12-26T14:42:38.701Z,97609.91
2022-12-26T14:45:44.275Z,97609.91
2022-12-26T14:48:51.576Z,97603.16
2022-12-26T14:51:40.444Z,97597.88
2022-12-26T14:54:50.786Z,97596.84
2022-12-26T14:57:49.442Z,97597.69
2022-12-26T15:00:36.177Z,97608.97
2022-12-26T15:03:49.212Z,97601.72
2022-12-26T15:07:00.758Z,97614.81
2022-12-26T15:10:05.388Z,97609.34
2022-12-26T15:13:28.436Z,97604.00
2022-12-26T15:16:20.158Z,97603.13
2022-12-26T15:19:54.124Z,97598.34
2022-12-26T15:22:47.156Z,97598.47
2022-12-26T15:26:01.106Z,97610.78
2022-12-26T15:29:16.336Z,97609.03
2022-12-26T15:31:59.293Z,97607.72
2022-12-26T15:35:02.551Z,97621.94
2022-12-26T15:37:56.526Z,97616.63
2022-12-26T15:40:31.545Z,97611.25
2022-12-26T15:43:28.779Z,97615.28
2022-12-26T15:46:11.067Z,97607.34
2022-12-26T15:49:02.744Z,97604.19
2022-12-26T15:51:56.148Z,97610.59
2022-12-26T15:54:52.672Z,97606.84
2022-12-26T15:57:32.327Z,97602.84
2022-12-26T16:00:18.317Z,97612.69
2022-12-26T16:02:59.488Z,97600.44
2022-12-26T16:05:42.403Z,97607.91
2022-12-26T16:08:57.574Z,97612.50
2022-12-26T16:11:33.340Z,97605.81
2022-12-26T16:14:07.237Z,97620.59
2022-12-26T16:16:40.140Z,97623.47
2022-12-26T16:19:22.882Z,97623.19
2022-12-26T16:22:11.097Z,97621.56
2022-12-26T16:24:46.506Z,97622.63
2022-12-26T16:27:21.663Z,97628.34
2022-12-26T16:29:56.104Z,97630.06
2022-12-26T16:32:32.902Z,97622.25
2022-12-26T16:35:03.685Z,97632.09
2022-12-26T16:37:34.936Z,97632.38
2022-12-26T16:40:22.017Z,97628.16
2022-12-26T16:43:03.492Z,97632.94
2022-12-26T16:45:37.193Z,97624.34
2022-12-26T16:48:11.291Z,97625.78
2022-12-26T16:50:51.341Z,97616.53
2022-12-26T16:53:26.810Z,97620.31
2022-12-26T16:56:20.167Z,97631.03
2022-12-26T16:59:27.985Z,97629.88
2022-12-26T17:02:01.407Z,97618.63
2022-12-26T17:04:36.374Z,97629.28
2022-12-26T17:07:11.418Z,97631.59
2022-12-26T17:09:52.646Z,97623.19
2022-12-26T17:12:29.208Z,97627.78
2022-12-26T17:15:04.668Z,97627.09
2022-12-26T17:17:40.785Z,97617.84
2022-12-26T17:20:44.737Z,97623.69
2022-12-26T17:23:40.645Z,97622.91
2022-12-26T17:26:31.403Z,97629.69
2022-12-26T17:29:10.536Z,97636.09
2022-12-26T17:31:46.083Z,97636.56
2022-12-26T17:34:29.344Z,97629.88
2022-12-26T17:37:18.998Z,97632.09
2022-12-26T17:40:03.268Z,97639.22
2022-12-26T17:42:47.978Z,97628.81
2022-12-26T17:45:24.734Z,97624.72
2022-12-26T17:47:59.544Z,97630.56
2022-12-26T17:50:36.375Z,97623.47
2022-12-26T17:53:30.427Z,97623.66
2022-12-26T17:56:14.091Z,97619.16
2022-12-26T17:58:45.030Z,97607.81
2022-12-26T18:01:21.871Z,97600.94
2022-12-26T18:04:03.738Z,97617.75
2022-12-26T18:06:37.216Z,97621.28
2022-12-26T18:09:07.697Z,97635.56
2022-12-26T18:11:39.206Z,97650.72
2022-12-26T18:14:12.369Z,97640.91
2022-12-26T18:16:48.233Z,97640.00
2022-12-26T18:19:22.990Z,97642.63
2022-12-26T18:21:53.357Z,97647.97
2022-12-26T18:24:23.924Z,97642.28
2022-12-26T18:27:04.670Z,97642.28
2022-12-26T18:29:40.804Z,97627.56
2022-12-26T18:32:31.289Z,97608.84
2022-12-26T18:35:02.875Z,97604.81
2022-12-26T18:37:36.552Z,97615.88
2022-12-26T18:40:13.395Z,97624.03
2022-12-26T18:42:43.769Z,97617.88
2022-12-26T18:45:19.434Z,97615.56
2022-12-26T18:47:55.595Z,97610.94
2022-12-26T18:50:29.980Z,97618.63
2022-12-26T18:53:04.249Z,97628.97
2022-12-26T18:55:37.496Z,97625.78
2022-12-26T18:58:09.605Z,97627.31
2022-12-26T19:00:39.915Z,97640.69
2022-12-26T19:03:15.812Z,97638.44
2022-12-26T19:05:46.261Z,97636.44
2022-12-26T19:08:16.892Z,97639.38
2022-12-26T19:10:51.866Z,97634.63
2022-12-26T19:13:26.379Z,97633.38
2022-12-26T19:16:01.651Z,97631.56
2022-12-26T19:18:34.835Z,97628.66
2022-12-26T19:21:05.175Z,97627.44
2022-12-26T19:23:37.526Z,97620.69
2022-12-26T19:26:23.164Z,97626.81
2022-12-26T19:28:58.315Z,97635.69
2022-12-26T19:31:33.095Z,97635.41
2022-12-26T19:34:21.235Z,97633.25
2022-12-26T19:36:54.740Z,97639.53
2022-12-26T19:39:25.167Z,97643.94
2022-12-26T19:41:56.071Z,97665.16
2022-12-26T19:44:49.569Z,97671.03
2022-12-26T19:47:24.572Z,97685.28
2022-12-26T19:50:04.682Z,97702.44
2022-12-26T19:52:41.289Z,97720.88
2022-12-26T19:55:18.448Z,97726.72
2022-12-26T19:57:53.666Z,97738.19
2022-12-26T20:00:37.515Z,97742.81
2022-12-26T20:03:13.732Z,97748.31
2022-12-26T20:05:49.120Z,97768.28
2022-12-26T20:08:21.999Z,97767.53
2022-12-26T20:11:00.962Z,97778.72
2022-12-26T20:13:34.608Z,97766.41
2022-12-26T20:16:46.022Z,97750.13
2022-12-26T20:19:11.270Z,97737.41
2022-12-26T20:21:51.572Z,97735.88
2022-12-26T20:24:23.183Z,97743.44
2022-12-26T20:26:57.826Z,97737.31
2022-12-26T20:29:32.936Z,97726.88
2022-12-26T20:32:06.668Z,97721.88
2022-12-26T20:34:37.055Z,97706.03
2022-12-26T20:37:11.561Z,97685.94
2022-12-26T20:40:04.454Z,97714.66
2022-12-26T20:42:33.881Z,97715.88
2022-12-26T20:45:09.417Z,97728.91
2022-12-26T20:47:42.907Z,97712.34
2022-12-26T20:50:18.685Z,97728.00
2022-12-26T20:53:00.059Z,97727.38
2022-12-26T20:55:36.776Z,97728.00
2022-12-26T20:58:13.218Z,97741.78
2022-12-26T21:00:50.521Z,97753.63
2022-12-26T21:03:31.692Z,97760.50
2022-12-26T21:06:14.408Z,97756.69
2022-12-26T21:08:59.451Z,97769.72
2022-12-26T21:11:42.697Z,97767.25
2022-12-26T21:14:23.108Z,97776.28
2022-12-26T21:16:59.264Z,97767.41
2022-12-26T21:19:39.677Z,97768.94
2022-12-26T21:22:13.528Z,97783.78
2022-12-26T21:24:46.827Z,97780.13
2022-12-26T21:27:17.449Z,97777.66
2022-12-26T21:29:47.898Z,97773.81
2022-12-26T21:32:19.451Z,97783.31
2022-12-26T21:34:49.820Z,97796.81
2022-12-26T21:37:32.630Z,97805.50
2022-12-26T21:40:05.627Z,97805.50
2022-12-26T21:42:35.994Z,97822.31
2022-12-26T21:45:06.880Z,97823.44
2022-12-26T21:47:37.408Z,97831.53
2022-12-26T21:50:09.246Z,97834.41
2022-12-26T21:52:39.606Z,97843.50
2022-12-26T21:55:26.566Z,97865.16
2022-12-26T21:57:57.091Z,97869.72
2022-12-26T22:00:27.827Z,97875.16
2022-12-26T22:03:10.659Z,97885.41
2022-12-26T22:05:43.151Z,97900.47
2022-12-26T22:08:14.174Z,97912.47
2022-12-26T22:11:02.420Z,97915.66
2022-12-26T22:13:33.659Z,97914.00
2022-12-26T22:16:10.118Z,97922.53
2022-12-26T22:18:46.239Z,97920.78
2022-12-26T22:21:18.661Z,97918.78
2022-12-26T22:23:50.748Z,97926.16
2022-12-26T22:26:26.111Z,97932.25
2022-12-26T22:28:56.848Z,97941.41
2022-12-26T22:31:31.787Z,97939.28
2022-12-26T22:34:04.380Z,97941.22
2022-12-26T22:36:37.431Z,97940.34
2022-12-26T22:39:08.096Z,97949.50
2022-12-26T22:41:41.224Z,97946.53
2022-12-26T22:44:15.782Z,97949.59
2022-12-26T22:46:46.198Z,97956.22
2022-12-26T22:49:16.620Z,97957.09
2022-12-26T22:51:47.041Z,97954.47
2022-12-26T22:54:17.368Z,97964.72
2022-12-26T22:56:52.375Z,97968.38
2022-12-26T22:59:57.860Z,97975.94
2022-12-26T23:02:14.446Z,97981.03
2022-12-26T23:04:45.848Z,97991.19
2022-12-26T23:07:18.281Z,97984.13
2022-12-26T23:09:49.192Z,97988.66
2022-12-26T23:12:35.922Z,97986.66
2022-12-26T23:15:07.731Z,97994.06
2022-12-26T23:17:54.197Z,97998.44
2022-12-26T23:20:39.400Z,97994.56
2022-12-26T23:23:10.662Z,97988.97
2022-12-26T23:25:41.179Z,97988.66
2022-12-26T23:28:27.807Z,97988.00
2022-12-26T23:30:59.016Z,97983.03
2022-12-26T23:33:29.401Z,97989.97
2022-12-26T23:35:59.809Z,97993.16
2022-12-26T23:38:30.341Z,97995.56
2022-12-26T23:41:01.968Z,97992.38
2022-12-26T23:43:35.460Z,98009.25
2022-12-26T23:46:12.681Z,98015.31
2022-12-26T23:48:43.068Z,98028.38
2022-12-26T23:51:13.411Z,98027.72
2022-12-26T23:53:43.849Z,98033.88
2022-12-26T23:56:14.378Z,98047.44
2022-12-26T23:58:47.769Z,98047.09
